Time,TemperatureF,DewpointF,PressureIn,WindDirection,WindDirectionDegrees,WindSpeedMPH,WindSpeedGustMPH,Humidity,HourlyPrecipIn,Conditions,Clouds,dailyrainin,SoftwareType,DateUTC
2013-02-10 00:00:00,39.9,28.4,30.01,NW,315,1.1,0.0,63,0.00,,,0.00,tws,2013-02-10 07:00:00,
2013-02-10 00:10:00,39.6,28.4,30.02,NW,315,1.5,2.4,63,0.00,,,0.00,tws,2013-02-10 07:10:00,
2013-02-10 00:20:00,39.3,28.3,30.02,West,270,1.4,2.4,64,0.00,,,0.00,tws,2013-02-10 07:20:00,
2013-02-10 00:30:00,39.1,28.1,30.02,WNW,292,0.1,1.0,64,0.00,,,0.00,tws,2013-02-10 07:30:00,
2013-02-10 00:40:00,39.1,28.0,30.02,NW,315,1.2,2.0,64,0.00,,,0.00,tws,2013-02-10 07:40:00,
2013-02-10 00:50:00,39.1,28.1,30.02,NW,315,1.9,3.0,64,0.00,,,0.00,tws,2013-02-10 07:50:00,
2013-02-10 01:00:00,39.0,28.0,30.02,NW,315,1.1,2.0,64,0.00,,,0.00,tws,2013-02-10 08:00:00,
2013-02-10 01:10:00,38.8,27.9,30.02,NW,315,0.0,0.0,64,0.00,,,0.00,tws,2013-02-10 08:10:00,
2013-02-10 01:20:00,38.5,27.8,30.02,NW,315,0.0,0.0,65,0.00,,,0.00,tws,2013-02-10 08:20:00,
2013-02-10 01:30:00,38.2,27.6,30.02,NW,315,0.0,0.0,65,0.00,,,0.00,tws,2013-02-10 08:30:00,
2013-02-10 01:40:00,37.8,27.5,30.01,NW,315,0.0,0.0,65,0.00,,,0.00,tws,2013-02-10 08:40:00,
2013-02-10 01:50:00,37.5,27.3,30.01,NW,315,0.7,2.4,66,0.00,,,0.00,tws,2013-02-10 08:50:00,
2013-02-10 02:00:00,37.3,27.2,30.01,NW,315,0.7,2.8,66,0.00,,,0.00,tws,2013-02-10 09:00:00,
2013-02-10 02:10:00,37.0,27.0,30.01,NW,315,1.9,3.0,66,0.00,,,0.00,tws,2013-02-10 09:10:00,
2013-02-10 02:20:00,36.8,27.0,30.01,NW,315,2.6,3.4,67,0.00,,,0.00,tws,2013-02-10 09:20:00,
2013-02-10 02:30:00,36.7,27.0,30.01,WNW,292,2.7,3.4,67,0.00,,,0.00,tws,2013-02-10 09:30:00,
2013-02-10 02:40:00,36.7,26.9,30.01,WNW,292,2.2,3.0,67,0.00,,,0.00,tws,2013-02-10 09:40:00,
2013-02-10 02:50:00,36.7,26.9,30.00,SW,225,1.6,2.7,67,0.00,,,0.00,tws,2013-02-10 09:50:00,
2013-02-10 03:00:00,36.5,26.8,30.01,West,270,0.1,0.9,67,0.00,,,0.00,tws,2013-02-10 10:00:00,
2013-02-10 03:10:00,36.4,26.7,30.00,NNE,22,0.0,0.3,67,0.00,,,0.00,tws,2013-02-10 10:10:00,
2013-02-10 03:20:00,36.2,26.6,30.00,NE,45,0.0,0.0,67,0.00,,,0.00,tws,2013-02-10 10:20:00,
2013-02-10 03:30:00,36.0,26.6,30.00,NW,315,0.0,0.0,68,0.00,,,0.00,tws,2013-02-10 10:30:00,
2013-02-10 03:40:00,35.7,26.6,30.00,SE,135,0.0,0.0,69,0.00,,,0.00,tws,2013-02-10 10:40:00,
2013-02-10 03:50:00,35.4,26.4,29.99,North,0,0.0,0.0,69,0.00,,,0.00,tws,2013-02-10 10:50:00,
2013-02-10 04:00:00,35.1,26.4,30.00,NW,315,0.0,0.0,70,0.00,,,0.00,tws,2013-02-10 11:00:00,
2013-02-10 04:10:00,34.9,26.5,29.98,NW,315,0.0,0.0,71,0.00,,,0.00,tws,2013-02-10 11:10:00,
2013-02-10 04:20:00,34.6,26.3,29.99,East,90,0.0,0.0,71,0.00,,,0.00,tws,2013-02-10 11:20:00,
2013-02-10 04:30:00,34.3,26.2,30.00,NE,45,0.0,0.0,72,0.00,,,0.00,tws,2013-02-10 11:30:00,
2013-02-10 04:40:00,34.1,26.2,29.99,NNW,337,0.0,0.0,72,0.00,,,0.00,tws,2013-02-10 11:40:00,
2013-02-10 04:50:00,33.8,26.2,29.99,North,0,0.0,0.0,73,0.00,,,0.00,tws,2013-02-10 11:50:00,
2013-02-10 05:00:00,33.5,26.1,29.99,North,0,0.0,0.0,73,0.00,,,0.00,tws,2013-02-10 12:00:00,
2013-02-10 05:10:00,33.4,26.0,29.99,North,0,0.0,0.0,74,0.00,,,0.00,tws,2013-02-10 12:10:00,
2013-02-10 05:20:00,33.3,26.0,29.99,North,0,0.0,0.0,74,0.00,,,0.00,tws,2013-02-10 12:20:00,
2013-02-10 05:30:00,33.1,26.0,29.98,NNW,337,0.0,0.0,74,0.00,,,0.00,tws,2013-02-10 12:30:00,
2013-02-10 05:40:00,33.1,25.9,29.98,NW,315,0.0,0.0,74,0.00,,,0.00,tws,2013-02-10 12:40:00,
2013-02-10 05:50:00,33.0,25.9,29.99,NW,315,0.0,0.0,75,0.00,,,0.00,tws,2013-02-10 12:50:00,
2013-02-10 06:00:00,32.9,26.0,29.99,WNW,292,0.0,0.4,75,0.00,,,0.00,tws,2013-02-10 13:00:00,
2013-02-10 06:10:00,32.9,25.9,29.99,WSW,247,0.0,0.0,75,0.00,,,0.00,tws,2013-02-10 13:10:00,
2013-02-10 06:20:00,33.0,26.0,29.99,NW,315,0.1,1.3,75,0.00,,,0.00,tws,2013-02-10 13:20:00,
2013-02-10 06:30:00,33.0,26.0,30.00,SW,225,0.0,0.0,75,0.00,,,0.00,tws,2013-02-10 13:30:00,
2013-02-10 06:40:00,33.0,26.0,30.00,SW,225,0.0,0.0,75,0.00,,,0.00,tws,2013-02-10 13:40:00,
2013-02-10 06:50:00,32.9,25.8,29.99,WNW,292,0.0,0.0,75,0.00,,,0.00,tws,2013-02-10 13:50:00,
2013-02-10 07:00:00,32.7,25.6,29.99,NW,315,0.0,0.0,75,0.00,,,0.00,tws,2013-02-10 14:00:00,
2013-02-10 07:10:00,32.4,25.5,29.99,NW,315,0.0,0.0,75,0.00,,,0.00,tws,2013-02-10 14:10:00,
2013-02-10 07:20:00,32.2,25.5,29.99,NW,315,0.0,0.0,76,0.00,,,0.00,tws,2013-02-10 14:20:00,
2013-02-10 07:30:00,32.0,25.4,30.00,WNW,292,0.0,0.0,76,0.00,,,0.00,tws,2013-02-10 14:30:00,
2013-02-10 07:40:00,32.0,25.5,30.00,WNW,292,0.0,0.3,76,0.00,,,0.00,tws,2013-02-10 14:40:00,
2013-02-10 07:50:00,32.1,25.8,30.01,North,0,0.0,0.0,77,0.00,,,0.00,tws,2013-02-10 14:50:00,
2013-02-10 08:00:00,32.2,25.9,30.00,South,180,0.0,0.0,77,0.00,,,0.00,tws,2013-02-10 15:00:00,
2013-02-10 08:10:00,32.7,26.5,30.00,East,90,0.0,0.0,77,0.00,,,0.00,tws,2013-02-10 15:10:00,
2013-02-10 08:20:00,33.7,27.5,30.00,North,0,0.0,0.0,77,0.00,,,0.00,tws,2013-02-10 15:20:00,
2013-02-10 08:30:00,35.4,29.1,30.00,NW,315,0.0,0.0,77,0.00,,,0.00,tws,2013-02-10 15:30:00,
2013-02-10 08:40:00,37.5,30.5,30.01,East,90,0.0,0.0,75,0.00,,,0.00,tws,2013-02-10 15:40:00,
2013-02-10 08:50:00,39.3,31.5,30.01,NE,45,0.0,0.0,73,0.00,,,0.00,tws,2013-02-10 15:50:00,
2013-02-10 09:00:00,41.0,32.7,30.01,NE,45,0.0,0.0,71,0.00,,,0.00,tws,2013-02-10 16:00:00,
2013-02-10 09:10:00,43.6,34.1,30.01,NE,45,0.0,0.1,68,0.00,,,0.00,tws,2013-02-10 16:10:00,
2013-02-10 09:20:00,45.3,34.3,30.01,North,0,0.3,0.8,64,0.00,,,0.00,tws,2013-02-10 16:20:00,
2013-02-10 09:30:00,46.0,33.7,30.01,WNW,292,1.4,3.6,61,0.00,,,0.00,tws,2013-02-10 16:30:00,
2013-02-10 09:40:00,46.9,33.5,30.01,NW,315,2.1,3.0,59,0.00,,,0.00,tws,2013-02-10 16:40:00,
2013-02-10 09:50:00,48.2,33.2,30.02,ESE,112,2.0,2.7,55,0.00,,,0.00,tws,2013-02-10 16:50:00,
2013-02-10 10:00:00,48.8,32.7,30.02,ENE,67,1.2,2.0,53,0.00,,,0.00,tws,2013-02-10 17:00:00,
2013-02-10 10:10:00,50.1,33.3,30.01,ESE,112,2.3,3.3,52,0.00,,,0.00,tws,2013-02-10 17:10:00,
2013-02-10 10:20:00,51.6,33.5,30.01,East,90,3.1,4.3,49,0.00,,,0.00,tws,2013-02-10 17:20:00,
2013-02-10 10:30:00,52.5,33.5,30.01,NE,45,3.0,4.2,47,0.00,,,0.00,tws,2013-02-10 17:30:00,
2013-02-10 10:40:00,52.7,32.5,30.01,ESE,112,2.6,4.2,45,0.00,,,0.00,tws,2013-02-10 17:40:00,
2013-02-10 10:50:00,52.5,31.8,30.02,East,90,2.7,4.6,45,0.00,,,0.00,tws,2013-02-10 17:50:00,
2013-02-10 11:00:00,52.2,31.5,30.01,ESE,112,3.0,3.9,44,0.00,,,0.00,tws,2013-02-10 18:00:00,
2013-02-10 11:10:00,52.4,31.6,30.01,ESE,112,1.1,2.2,44,0.00,,,0.00,tws,2013-02-10 18:10:00,
2013-02-10 11:20:00,53.1,31.2,30.01,ESE,112,2.5,4.1,42,0.00,,,0.00,tws,2013-02-10 18:20:00,
2013-02-10 11:30:00,53.3,30.0,30.01,North,0,3.9,4.9,40,0.00,,,0.00,tws,2013-02-10 18:30:00,
2013-02-10 11:40:00,52.9,29.7,30.01,ENE,67,3.9,5.7,40,0.00,,,0.00,tws,2013-02-10 18:40:00,
2013-02-10 11:50:00,52.6,29.5,30.01,East,90,3.0,4.8,40,0.00,,,0.00,tws,2013-02-10 18:50:00,
2013-02-10 12:00:00,52.6,28.8,30.00,East,90,2.3,4.4,39,0.00,,,0.00,tws,2013-02-10 19:00:00,
2013-02-10 12:10:00,52.5,29.1,29.99,North,360,2.7,4.8,40,0.00,,,0.00,tws,2013-02-10 19:10:00,
2013-02-10 12:20:00,52.4,28.3,29.99,SE,135,4.6,6.2,39,0.00,,,0.00,tws,2013-02-10 19:20:00,
2013-02-10 12:30:00,52.1,27.0,29.98,South,180,3.6,4.9,37,0.00,,,0.00,tws,2013-02-10 19:30:00,
2013-02-10 12:40:00,51.9,26.3,29.97,SE,135,1.8,4.3,36,0.00,,,0.00,tws,2013-02-10 19:40:00,
2013-02-10 12:50:00,52.1,26.4,29.96,SW,225,2.8,4.7,36,0.00,,,0.00,tws,2013-02-10 19:50:00,
2013-02-10 13:00:00,53.0,26.7,29.96,ENE,67,4.1,5.6,35,0.00,,,0.00,tws,2013-02-10 20:00:00,
2013-02-10 13:10:00,53.8,26.9,29.96,SE,135,4.3,5.6,35,0.00,,,0.00,tws,2013-02-10 20:10:00,
2013-02-10 13:20:00,54.4,26.9,29.95,SW,225,3.8,5.0,34,0.00,,,0.00,tws,2013-02-10 20:20:00,
2013-02-10 13:30:00,54.6,26.7,29.94,East,90,3.9,5.3,33,0.00,,,0.00,tws,2013-02-10 20:30:00,
2013-02-10 13:40:00,54.7,26.7,29.94,SSE,157,5.4,7.1,33,0.00,,,0.00,tws,2013-02-10 20:40:00,
2013-02-10 13:50:00,54.8,25.9,29.94,SW,225,4.1,6.7,32,0.00,,,0.00,tws,2013-02-10 20:50:00,
2013-02-10 14:00:00,55.0,26.4,29.94,SW,225,3.9,6.2,32,0.00,,,0.00,tws,2013-02-10 21:00:00,
2013-02-10 14:10:00,55.4,26.7,29.93,SE,135,4.6,5.5,32,0.00,,,0.00,tws,2013-02-10 21:10:00,
2013-02-10 14:20:00,55.8,27.0,29.93,South,180,3.7,5.9,32,0.00,,,0.00,tws,2013-02-10 21:20:00,
2013-02-10 14:30:00,55.7,26.3,29.93,SE,135,6.2,8.6,31,0.00,,,0.00,tws,2013-02-10 21:30:00,
2013-02-10 14:40:00,55.7,26.7,29.93,East,90,5.3,6.9,32,0.00,,,0.00,tws,2013-02-10 21:40:00,
2013-02-10 14:50:00,56.3,27.6,29.93,SW,225,4.8,7.0,32,0.00,,,0.00,tws,2013-02-10 21:50:00,
2013-02-10 15:00:00,56.8,27.9,29.93,SSW,202,4.2,5.8,32,0.00,,,0.00,tws,2013-02-10 22:00:00,
2013-02-10 15:10:00,57.0,28.0,29.93,West,270,4.6,6.9,32,0.00,,,0.00,tws,2013-02-10 22:10:00,
2013-02-10 15:20:00,57.1,28.2,29.93,SSE,157,4.1,6.8,32,0.00,,,0.00,tws,2013-02-10 22:20:00,
2013-02-10 15:30:00,57.1,27.7,29.92,South,180,4.1,6.7,32,0.00,,,0.00,tws,2013-02-10 22:30:00,
2013-02-10 15:40:00,57.3,28.2,29.92,SE,135,3.5,5.2,32,0.00,,,0.00,tws,2013-02-10 22:40:00,
2013-02-10 15:50:00,57.7,28.4,29.92,NNW,337,3.3,6.9,32,0.00,,,0.00,tws,2013-02-10 22:50:00,
2013-02-10 16:00:00,58.2,28.4,29.91,SW,225,1.8,3.6,31,0.00,,,0.00,tws,2013-02-10 23:00:00,
2013-02-10 16:10:00,58.8,28.4,29.92,ENE,67,3.5,5.3,31,0.00,,,0.00,tws,2013-02-10 23:10:00,
2013-02-10 16:20:00,59.1,27.9,29.92,SE,135,3.9,6.2,30,0.00,,,0.00,tws,2013-02-10 23:20:00,
2013-02-10 16:30:00,58.9,27.4,29.91,SE,135,5.5,6.8,29,0.00,,,0.00,tws,2013-02-10 23:30:00,
2013-02-10 16:40:00,58.3,26.5,29.91,East,90,4.6,6.4,29,0.00,,,0.00,tws,2013-02-10 23:40:00,
2013-02-10 16:50:00,57.7,26.2,29.92,SE,135,3.8,6.1,29,0.00,,,0.00,tws,2013-02-10 23:50:00,
2013-02-10 17:00:00,57.2,25.9,29.91,SW,225,3.8,5.7,29,0.00,,,0.00,tws,2013-02-11 00:00:00,
2013-02-10 17:10:00,57.2,26.8,29.92,South,180,3.7,7.5,30,0.00,,,0.00,tws,2013-02-11 00:10:00,
2013-02-10 17:20:00,56.9,25.9,29.91,South,180,5.3,6.8,29,0.00,,,0.00,tws,2013-02-11 00:20:00,
2013-02-10 17:30:00,55.9,24.8,29.91,South,180,5.7,8.0,29,0.00,,,0.00,tws,2013-02-11 00:30:00,
2013-02-10 17:40:00,54.4,24.2,29.92,South,180,4.9,6.9,30,0.00,,,0.00,tws,2013-02-11 00:40:00,
2013-02-10 17:50:00,53.3,23.7,29.92,South,180,4.1,5.4,31,0.00,,,0.00,tws,2013-02-11 00:50:00,
2013-02-10 18:00:00,52.6,23.7,29.92,SSE,157,2.9,4.3,32,0.00,,,0.00,tws,2013-02-11 01:00:00,
2013-02-10 18:10:00,52.1,23.9,29.92,SW,225,3.5,5.1,32,0.00,,,0.00,tws,2013-02-11 01:10:00,
2013-02-10 18:20:00,51.4,24.3,29.92,SW,225,3.8,4.9,34,0.00,,,0.00,tws,2013-02-11 01:20:00,
2013-02-10 18:30:00,50.8,24.4,29.92,SW,225,3.2,4.5,35,0.00,,,0.00,tws,2013-02-11 01:30:00,
2013-02-10 18:40:00,50.2,24.8,29.93,West,270,2.2,2.9,36,0.00,,,0.00,tws,2013-02-11 01:40:00,
2013-02-10 18:50:00,49.8,25.4,29.93,NNW,337,1.8,2.7,38,0.00,,,0.00,tws,2013-02-11 01:50:00,
2013-02-10 19:00:00,49.3,26.0,29.94,NW,315,0.5,1.4,39,0.00,,,0.00,tws,2013-02-11 02:00:00,
2013-02-10 19:10:00,48.7,26.7,29.94,NW,315,0.9,1.3,42,0.00,,,0.00,tws,2013-02-11 02:10:00,
2013-02-10 19:20:00,48.0,26.5,29.94,NW,315,0.1,0.7,42,0.00,,,0.00,tws,2013-02-11 02:20:00,
2013-02-10 19:30:00,47.4,26.9,29.94,NW,315,0.0,0.0,44,0.00,,,0.00,tws,2013-02-11 02:30:00,
2013-02-10 19:40:00,46.8,26.9,29.94,NW,315,0.0,0.0,45,0.00,,,0.00,tws,2013-02-11 02:40:00,
2013-02-10 19:50:00,46.4,26.8,29.94,NW,315,0.0,0.0,46,0.00,,,0.00,tws,2013-02-11 02:50:00,
2013-02-10 20:00:00,45.8,26.7,29.95,NW,315,0.0,0.0,46,0.00,,,0.00,tws,2013-02-11 03:00:00,
2013-02-10 20:10:00,45.3,26.6,29.95,NW,315,0.4,2.1,47,0.00,,,0.00,tws,2013-02-11 03:10:00,
2013-02-10 20:20:00,44.9,27.0,29.95,NW,315,1.7,2.6,49,0.00,,,0.00,tws,2013-02-11 03:20:00,
2013-02-10 20:30:00,44.5,27.1,29.95,NNW,337,1.9,2.5,50,0.00,,,0.00,tws,2013-02-11 03:30:00,
2013-02-10 20:40:00,44.2,27.2,29.95,NW,315,1.6,2.2,50,0.00,,,0.00,tws,2013-02-11 03:40:00,
2013-02-10 20:50:00,43.9,26.9,29.96,NNW,337,2.5,3.2,50,0.00,,,0.00,tws,2013-02-11 03:50:00,
2013-02-10 21:00:00,43.6,26.8,29.96,NW,315,1.5,2.5,51,0.00,,,0.00,tws,2013-02-11 04:00:00,
2013-02-10 21:10:00,43.3,26.9,29.96,WNW,292,2.3,3.6,52,0.00,,,0.00,tws,2013-02-11 04:10:00,
2013-02-10 21:20:00,43.0,26.9,29.97,NW,315,1.8,2.9,52,0.00,,,0.00,tws,2013-02-11 04:20:00,
2013-02-10 21:30:00,42.7,27.0,29.96,NNW,337,2.9,3.5,53,0.00,,,0.00,tws,2013-02-11 04:30:00,
2013-02-10 21:40:00,42.3,27.0,29.96,NW,315,3.7,4.5,54,0.00,,,0.00,tws,2013-02-11 04:40:00,
2013-02-10 21:50:00,42.1,27.0,29.96,NNW,337,3.9,4.7,54,0.00,,,0.00,tws,2013-02-11 04:50:00,
2013-02-10 22:00:00,41.8,26.8,29.96,WNW,292,3.3,3.8,54,0.00,,,0.00,tws,2013-02-11 05:00:00,
2013-02-10 22:10:00,41.6,26.8,29.96,NW,315,4.0,4.7,55,0.00,,,0.00,tws,2013-02-11 05:10:00,
2013-02-10 22:20:00,41.5,27.0,29.96,NW,315,3.1,4.0,56,0.00,,,0.00,tws,2013-02-11 05:20:00,
2013-02-10 22:30:00,41.2,26.8,29.96,WNW,292,2.4,3.2,56,0.00,,,0.00,tws,2013-02-11 05:30:00,
2013-02-10 22:40:00,41.0,26.9,29.96,NW,315,2.4,2.8,56,0.00,,,0.00,tws,2013-02-11 05:40:00,
2013-02-10 22:50:00,40.7,26.8,29.96,NNW,337,2.8,3.3,57,0.00,,,0.00,tws,2013-02-11 05:50:00,
2013-02-10 23:00:00,40.3,26.7,29.96,NW,315,3.5,4.3,57,0.00,,,0.00,tws,2013-02-11 06:00:00,
2013-02-10 23:10:00,40.1,26.6,29.96,NW,315,3.7,5.0,58,0.00,,,0.00,tws,2013-02-11 06:10:00,
2013-02-10 23:20:00,39.9,26.5,29.96,NW,315,2.9,3.5,58,0.00,,,0.00,tws,2013-02-11 06:20:00,
2013-02-10 23:30:00,39.7,26.4,29.96,NW,315,2.8,3.6,58,0.00,,,0.00,tws,2013-02-11 06:30:00,
2013-02-10 23:40:00,39.5,26.4,29.96,NW,315,2.9,3.8,59,0.00,,,0.00,tws,2013-02-11 06:40:00,
2013-02-10 23:50:00,39.4,26.5,29.96,NW,315,0.6,2.2,59,0.00,,,0.00,tws,2013-02-11 06:50:00,